sensor_id;sensor_type;location;lat;lon;timestamp;P1;durP1;ratioP1;P2;durP2;ratioP2
76863;SDS011;65834;52.364;9.754;2024-01-15T00:02:20;13.23;;;5.20;;
76863;SDS011;65834;52.364;9.754;2024-01-15T00:04:50;12.43;;;4.63;;
76863;SDS011;65834;52.364;9.754;2024-01-15T00:07:22;14.20;;;5.20;;
76863;SDS011;65834;52.364;9.754;2024-01-15T00:09:51;12.98;;;5.15;;
76863;SDS011;65834;52.364;9.754;2024-01-15T00:12:21;13.63;;;4.90;;
76863;SDS011;65834;52.364;9.754;2024-01-15T00:14:51;13.83;;;4.30;;
76863;SDS011;65834;52.364;9.754;2024-01-15T00:17:20;13.70;;;4.70;;
76863;SDS011;65834;52.364;9.754;2024-01-15T00:19:50;12.03;;;4.53;;
76863;SDS011;65834;52.364;9.754;2024-01-15T00:22:24;14.70;;;5.47;;
76863;SDS011;65834;52.364;9.754;2024-01-15T00:24:54;13.10;;;4.23;;
76863;SDS011;65834;52.364;9.754;2024-01-15T00:27:24;10.73;;;4.00;;
76863;SDS011;65834;52.364;9.754;2024-01-15T00:29:53;12.13;;;4.27;;
76863;SDS011;65834;52.364;9.754;2024-01-15T00:32:23;11.50;;;4.73;;
76863;SDS011;65834;52.364;9.754;2024-01-15T00:34:53;13.43;;;4.03;;
76863;SDS011;65834;52.364;9.754;2024-01-15T00:37:25;14.43;;;4.83;;
76863;SDS011;65834;52.364;9.754;2024-01-15T00:39:54;12.38;;;4.15;;
76863;SDS011;65834;52.364;9.754;2024-01-15T00:42:24;11.10;;;3.80;;
76863;SDS011;65834;52.364;9.754;2024-01-15T00:44:53;13.17;;;3.90;;
76863;SDS011;65834;52.364;9.754;2024-01-15T00:47:23;13.63;;;4.37;;
76863;SDS011;65834;52.364;9.754;2024-01-15T00:49:53;13.37;;;4.17;;
76863;SDS011;65834;52.364;9.754;2024-01-15T00:52:25;14.30;;;4.37;;
76863;SDS011;65834;52.364;9.754;2024-01-15T00:54:54;12.48;;;4.30;;
76863;SDS011;65834;52.364;9.754;2024-01-15T00:57:24;11.70;;;4.10;;
76863;SDS011;65834;52.364;9.754;2024-01-15T00:59:53;13.20;;;4.23;;
76863;SDS011;65834;52.364;9.754;2024-01-15T01:02:23;13.17;;;4.63;;
76863;SDS011;65834;52.364;9.754;2024-01-15T01:04:53;11.90;;;3.50;;
76863;SDS011;65834;52.364;9.754;2024-01-15T01:07:25;11.93;;;3.97;;
76863;SDS011;65834;52.364;9.754;2024-01-15T01:09:55;11.80;;;4.07;;
76863;SDS011;65834;52.364;9.754;2024-01-15T01:12:24;11.47;;;3.53;;
76863;SDS011;65834;52.364;9.754;2024-01-15T01:14:54;12.30;;;4.60;;
76863;SDS011;65834;52.364;9.754;2024-01-15T01:17:23;12.47;;;4.00;;
76863;SDS011;65834;52.364;9.754;2024-01-15T01:19:53;12.83;;;3.83;;
76863;SDS011;65834;52.364;9.754;2024-01-15T01:22:25;11.33;;;4.13;;
76863;SDS011;65834;52.364;9.754;2024-01-15T01:24:55;12.02;;;4.18;;
76863;SDS011;65834;52.364;9.754;2024-01-15T01:27:25;8.70;;;2.83;;
76863;SDS011;65834;52.364;9.754;2024-01-15T01:29:54;12.50;;;3.47;;
76863;SDS011;65834;52.364;9.754;2024-01-15T01:32:24;10.97;;;3.20;;
76863;SDS011;65834;52.364;9.754;2024-01-15T01:34:53;12.10;;;3.63;;
76863;SDS011;65834;52.364;9.754;2024-01-15T01:37:25;8.37;;;2.60;;
76863;SDS011;65834;52.364;9.754;2024-01-15T01:39:55;7.82;;;2.65;;
76863;SDS011;65834;52.364;9.754;2024-01-15T01:42:24;9.50;;;2.30;;
76863;SDS011;65834;52.364;9.754;2024-01-15T01:44:54;7.83;;;2.40;;
76863;SDS011;65834;52.364;9.754;2024-01-15T01:47:24;12.37;;;3.27;;
76863;SDS011;65834;52.364;9.754;2024-01-15T01:49:54;9.60;;;2.40;;
76863;SDS011;65834;52.364;9.754;2024-01-15T01:52:27;10.77;;;2.40;;
76863;SDS011;65834;52.364;9.754;2024-01-15T01:54:56;9.10;;;2.45;;
76863;SDS011;65834;52.364;9.754;2024-01-15T01:57:26;7.30;;;1.93;;
76863;SDS011;65834;52.364;9.754;2024-01-15T01:59:56;8.27;;;2.10;;
76863;SDS011;65834;52.364;9.754;2024-01-15T02:02:36;10.90;;;2.70;;
76863;SDS011;65834;52.364;9.754;2024-01-15T02:05:06;8.53;;;2.10;;
76863;SDS011;65834;52.364;9.754;2024-01-15T02:07:40;9.07;;;2.40;;
76863;SDS011;65834;52.364;9.754;2024-01-15T02:10:10;9.73;;;2.30;;
76863;SDS011;65834;52.364;9.754;2024-01-15T02:12:39;7.97;;;1.90;;
76863;SDS011;65834;52.364;9.754;2024-01-15T02:15:09;8.93;;;2.47;;
76863;SDS011;65834;52.364;9.754;2024-01-15T02:20:27;12.80;;;2.80;;
76863;SDS011;65834;52.364;9.754;2024-01-15T02:23:05;11.07;;;2.37;;
76863;SDS011;65834;52.364;9.754;2024-01-15T02:25:38;9.77;;;2.27;;
76863;SDS011;65834;52.364;9.754;2024-01-15T02:28:10;10.97;;;2.83;;
76863;SDS011;65834;52.364;9.754;2024-01-15T02:30:41;10.50;;;2.10;;
76863;SDS011;65834;52.364;9.754;2024-01-15T02:33:12;9.03;;;2.03;;
76863;SDS011;65834;52.364;9.754;2024-01-15T02:35:42;7.27;;;1.80;;
76863;SDS011;65834;52.364;9.754;2024-01-15T02:38:15;10.40;;;2.00;;
76863;SDS011;65834;52.364;9.754;2024-01-15T02:40:45;7.78;;;2.00;;
76863;SDS011;65834;52.364;9.754;2024-01-15T02:43:16;5.30;;;1.63;;
76863;SDS011;65834;52.364;9.754;2024-01-15T02:45:46;8.77;;;2.20;;
76863;SDS011;65834;52.364;9.754;2024-01-15T02:48:15;7.50;;;2.00;;
76863;SDS011;65834;52.364;9.754;2024-01-15T02:50:45;8.60;;;2.20;;
76863;SDS011;65834;52.364;9.754;2024-01-15T02:53:17;7.87;;;1.83;;
76863;SDS011;65834;52.364;9.754;2024-01-15T02:55:47;12.70;;;2.47;;
76863;SDS011;65834;52.364;9.754;2024-01-15T02:58:16;7.87;;;1.87;;
76863;SDS011;65834;52.364;9.754;2024-01-15T03:00:46;12.23;;;1.60;;
76863;SDS011;65834;52.364;9.754;2024-01-15T03:03:15;6.73;;;1.57;;
76863;SDS011;65834;52.364;9.754;2024-01-15T03:05:45;12.70;;;1.73;;
76863;SDS011;65834;52.364;9.754;2024-01-15T03:08:17;6.93;;;1.60;;
76863;SDS011;65834;52.364;9.754;2024-01-15T03:10:49;9.50;;;1.77;;
76863;SDS011;65834;52.364;9.754;2024-01-15T03:13:19;5.47;;;1.33;;
76863;SDS011;65834;52.364;9.754;2024-01-15T03:15:48;8.00;;;1.43;;
76863;SDS011;65834;52.364;9.754;2024-01-15T03:18:18;5.87;;;1.17;;
76863;SDS011;65834;52.364;9.754;2024-01-15T03:20:48;7.53;;;1.53;;
76863;SDS011;65834;52.364;9.754;2024-01-15T03:23:20;9.77;;;1.53;;
76863;SDS011;65834;52.364;9.754;2024-01-15T03:25:50;6.25;;;1.30;;
76863;SDS011;65834;52.364;9.754;2024-01-15T03:28:19;5.97;;;1.03;;
76863;SDS011;65834;52.364;9.754;2024-01-15T03:30:49;5.87;;;1.40;;
76863;SDS011;65834;52.364;9.754;2024-01-15T03:33:18;11.13;;;1.40;;
76863;SDS011;65834;52.364;9.754;2024-01-15T03:35:48;8.23;;;1.17;;
76863;SDS011;65834;52.364;9.754;2024-01-15T03:38:20;7.87;;;1.20;;
76863;SDS011;65834;52.364;9.754;2024-01-15T03:40:50;3.63;;;1.10;;
76863;SDS011;65834;52.364;9.754;2024-01-15T03:43:19;7.63;;;1.30;;
76863;SDS011;65834;52.364;9.754;2024-01-15T03:45:49;9.50;;;1.73;;
76863;SDS011;65834;52.364;9.754;2024-01-15T03:48:18;11.33;;;1.80;;
76863;SDS011;65834;52.364;9.754;2024-01-15T03:50:48;4.90;;;1.17;;
76863;SDS011;65834;52.364;9.754;2024-01-15T03:53:20;4.47;;;0.93;;
76863;SDS011;65834;52.364;9.754;2024-01-15T03:55:50;5.47;;;1.20;;
76863;SDS011;65834;52.364;9.754;2024-01-15T03:58:19;8.03;;;1.53;;
76863;SDS011;65834;52.364;9.754;2024-01-15T04:00:49;6.77;;;1.70;;
76863;SDS011;65834;52.364;9.754;2024-01-15T04:03:19;9.67;;;2.03;;
76863;SDS011;65834;52.364;9.754;2024-01-15T04:05:49;4.17;;;1.00;;
76863;SDS011;65834;52.364;9.754;2024-01-15T04:08:21;6.50;;;1.50;;
76863;SDS011;65834;52.364;9.754;2024-01-15T04:10:50;8.50;;;1.73;;
76863;SDS011;65834;52.364;9.754;2024-01-15T04:13:21;14.40;;;2.07;;
76863;SDS011;65834;52.364;9.754;2024-01-15T04:15:51;5.47;;;1.27;;
76863;SDS011;65834;52.364;9.754;2024-01-15T04:18:20;8.87;;;1.47;;
76863;SDS011;65834;52.364;9.754;2024-01-15T04:20:50;7.20;;;1.50;;
76863;SDS011;65834;52.364;9.754;2024-01-15T04:23:22;7.27;;;1.57;;
76863;SDS011;65834;52.364;9.754;2024-01-15T04:25:51;5.03;;;1.30;;
76863;SDS011;65834;52.364;9.754;2024-01-15T04:28:21;6.23;;;1.47;;
76863;SDS011;65834;52.364;9.754;2024-01-15T04:30:51;6.40;;;1.03;;
76863;SDS011;65834;52.364;9.754;2024-01-15T04:33:20;3.93;;;1.10;;
76863;SDS011;65834;52.364;9.754;2024-01-15T04:35:50;7.80;;;1.47;;
76863;SDS011;65834;52.364;9.754;2024-01-15T04:38:22;9.37;;;1.90;;
76863;SDS011;65834;52.364;9.754;2024-01-15T04:40:52;10.73;;;1.65;;
76863;SDS011;65834;52.364;9.754;2024-01-15T04:43:23;6.75;;;1.20;;
76863;SDS011;65834;52.364;9.754;2024-01-15T04:45:53;6.87;;;1.47;;
76863;SDS011;65834;52.364;9.754;2024-01-15T04:48:23;4.97;;;1.40;;
76863;SDS011;65834;52.364;9.754;2024-01-15T04:50:52;2.80;;;1.00;;
76863;SDS011;65834;52.364;9.754;2024-01-15T04:53:24;5.37;;;1.33;;
76863;SDS011;65834;52.364;9.754;2024-01-15T04:55:54;4.88;;;1.10;;
76863;SDS011;65834;52.364;9.754;2024-01-15T04:58:23;6.80;;;1.27;;
76863;SDS011;65834;52.364;9.754;2024-01-15T05:00:53;7.40;;;1.30;;
76863;SDS011;65834;52.364;9.754;2024-01-15T05:03:23;9.50;;;1.17;;
76863;SDS011;65834;52.364;9.754;2024-01-15T05:05:53;9.80;;;1.57;;
76863;SDS011;65834;52.364;9.754;2024-01-15T05:08:25;10.07;;;1.63;;
76863;SDS011;65834;52.364;9.754;2024-01-15T05:10:55;5.65;;;1.00;;
76863;SDS011;65834;52.364;9.754;2024-01-15T05:13:24;4.47;;;1.23;;
76863;SDS011;65834;52.364;9.754;2024-01-15T05:15:54;7.60;;;1.47;;
76863;SDS011;65834;52.364;9.754;2024-01-15T05:18:24;6.73;;;1.37;;
76863;SDS011;65834;52.364;9.754;2024-01-15T05:20:54;5.67;;;1.03;;
76863;SDS011;65834;52.364;9.754;2024-01-15T05:23:26;3.77;;;1.20;;
76863;SDS011;65834;52.364;9.754;2024-01-15T05:25:55;10.50;;;1.60;;
76863;SDS011;65834;52.364;9.754;2024-01-15T05:28:25;6.17;;;1.40;;
76863;SDS011;65834;52.364;9.754;2024-01-15T05:30:54;8.93;;;1.73;;
76863;SDS011;65834;52.364;9.754;2024-01-15T05:33:24;5.93;;;1.30;;
76863;SDS011;65834;52.364;9.754;2024-01-15T05:35:54;6.83;;;1.10;;
76863;SDS011;65834;52.364;9.754;2024-01-15T05:38:28;6.23;;;1.23;;
76863;SDS011;65834;52.364;9.754;2024-01-15T05:40:57;8.20;;;1.40;;
76863;SDS011;65834;52.364;9.754;2024-01-15T05:43:27;6.87;;;1.63;;
76863;SDS011;65834;52.364;9.754;2024-01-15T05:45:56;6.07;;;1.53;;
76863;SDS011;65834;52.364;9.754;2024-01-15T05:48:27;6.20;;;1.13;;
76863;SDS011;65834;52.364;9.754;2024-01-15T05:50:57;6.40;;;1.27;;
76863;SDS011;65834;52.364;9.754;2024-01-15T05:53:30;5.33;;;1.20;;
76863;SDS011;65834;52.364;9.754;2024-01-15T05:55:59;7.13;;;1.50;;
76863;SDS011;65834;52.364;9.754;2024-01-15T05:58:29;5.43;;;1.30;;
76863;SDS011;65834;52.364;9.754;2024-01-15T06:00:58;6.13;;;1.30;;
76863;SDS011;65834;52.364;9.754;2024-01-15T06:03:35;3.53;;;1.00;;
76863;SDS011;65834;52.364;9.754;2024-01-15T06:06:05;8.30;;;1.77;;
76863;SDS011;65834;52.364;9.754;2024-01-15T06:08:38;7.90;;;1.60;;
76863;SDS011;65834;52.364;9.754;2024-01-15T06:11:08;6.60;;;1.13;;
76863;SDS011;65834;52.364;9.754;2024-01-15T06:13:37;7.93;;;1.40;;
76863;SDS011;65834;52.364;9.754;2024-01-15T06:16:11;7.27;;;1.27;;
76863;SDS011;65834;52.364;9.754;2024-01-15T06:18:43;4.37;;;0.97;;
76863;SDS011;65834;52.364;9.754;2024-01-15T06:21:13;4.90;;;1.10;;
76863;SDS011;65834;52.364;9.754;2024-01-15T06:23:45;9.10;;;1.40;;
76863;SDS011;65834;52.364;9.754;2024-01-15T06:26:14;6.22;;;1.45;;
76863;SDS011;65834;52.364;9.754;2024-01-15T06:28:44;7.03;;;1.60;;
76863;SDS011;65834;52.364;9.754;2024-01-15T06:31:14;5.93;;;1.17;;
76863;SDS011;65834;52.364;9.754;2024-01-15T06:33:43;6.50;;;1.63;;
76863;SDS011;65834;52.364;9.754;2024-01-15T06:36:14;7.77;;;1.60;;
76863;SDS011;65834;52.364;9.754;2024-01-15T06:38:46;5.33;;;1.50;;
76863;SDS011;65834;52.364;9.754;2024-01-15T06:41:16;8.93;;;1.30;;
76863;SDS011;65834;52.364;9.754;2024-01-15T06:43:46;8.90;;;1.50;;
76863;SDS011;65834;52.364;9.754;2024-01-15T06:46:19;5.47;;;1.33;;
76863;SDS011;65834;52.364;9.754;2024-01-15T06:48:49;4.50;;;1.33;;
76863;SDS011;65834;52.364;9.754;2024-01-15T06:51:19;3.90;;;1.47;;
76863;SDS011;65834;52.364;9.754;2024-01-15T06:53:51;6.00;;;1.20;;
76863;SDS011;65834;52.364;9.754;2024-01-15T06:56:20;6.85;;;1.92;;
76863;SDS011;65834;52.364;9.754;2024-01-15T06:58:50;6.13;;;1.40;;
76863;SDS011;65834;52.364;9.754;2024-01-15T07:01:19;5.30;;;1.27;;
76863;SDS011;65834;52.364;9.754;2024-01-15T07:03:49;4.17;;;0.90;;
76863;SDS011;65834;52.364;9.754;2024-01-15T07:06:19;5.07;;;1.67;;
76863;SDS011;65834;52.364;9.754;2024-01-15T07:08:51;5.47;;;1.33;;
76863;SDS011;65834;52.364;9.754;2024-01-15T07:11:21;7.03;;;1.70;;
76863;SDS011;65834;52.364;9.754;2024-01-15T07:13:50;9.47;;;1.70;;
76863;SDS011;65834;52.364;9.754;2024-01-15T07:16:20;5.80;;;1.70;;
76863;SDS011;65834;52.364;9.754;2024-01-15T07:21:32;7.80;;;1.93;;
76863;SDS011;65834;52.364;9.754;2024-01-15T07:24:05;6.63;;;1.70;;
76863;SDS011;65834;52.364;9.754;2024-01-15T07:26:35;8.88;;;1.73;;
76863;SDS011;65834;52.364;9.754;2024-01-15T07:29:04;9.27;;;1.57;;
76863;SDS011;65834;52.364;9.754;2024-01-15T07:31:34;8.40;;;1.93;;
76863;SDS011;65834;52.364;9.754;2024-01-15T07:34:04;5.47;;;1.73;;
76863;SDS011;65834;52.364;9.754;2024-01-15T07:36:34;5.90;;;2.00;;
76863;SDS011;65834;52.364;9.754;2024-01-15T07:39:06;8.07;;;1.83;;
76863;SDS011;65834;52.364;9.754;2024-01-15T07:41:37;6.63;;;1.50;;
76863;SDS011;65834;52.364;9.754;2024-01-15T07:44:07;5.80;;;1.50;;
76863;SDS011;65834;52.364;9.754;2024-01-15T07:46:36;8.57;;;1.70;;
76863;SDS011;65834;52.364;9.754;2024-01-15T07:49:06;7.47;;;1.30;;
76863;SDS011;65834;52.364;9.754;2024-01-15T07:51:36;8.60;;;1.70;;
76863;SDS011;65834;52.364;9.754;2024-01-15T07:54:09;3.63;;;1.37;;
76863;SDS011;65834;52.364;9.754;2024-01-15T07:56:52;8.05;;;1.67;;
76863;SDS011;65834;52.364;9.754;2024-01-15T07:59:23;9.23;;;1.70;;
76863;SDS011;65834;52.364;9.754;2024-01-15T08:01:53;5.77;;;1.53;;
76863;SDS011;65834;52.364;9.754;2024-01-15T08:04:23;5.43;;;1.40;;
76863;SDS011;65834;52.364;9.754;2024-01-15T08:06:53;6.17;;;1.87;;
76863;SDS011;65834;52.364;9.754;2024-01-15T08:09:26;6.80;;;2.03;;
76863;SDS011;65834;52.364;9.754;2024-01-15T08:11:56;6.30;;;1.60;;
76863;SDS011;65834;52.364;9.754;2024-01-15T08:14:25;6.17;;;1.67;;
76863;SDS011;65834;52.364;9.754;2024-01-15T08:16:55;5.07;;;1.43;;
76863;SDS011;65834;52.364;9.754;2024-01-15T08:19:24;7.77;;;1.93;;
76863;SDS011;65834;52.364;9.754;2024-01-15T08:21:54;3.17;;;1.50;;
76863;SDS011;65834;52.364;9.754;2024-01-15T08:24:26;5.13;;;1.70;;
76863;SDS011;65834;52.364;9.754;2024-01-15T08:26:56;5.95;;;1.80;;
76863;SDS011;65834;52.364;9.754;2024-01-15T08:29:25;7.43;;;1.83;;
76863;SDS011;65834;52.364;9.754;2024-01-15T08:31:59;7.87;;;1.70;;
76863;SDS011;65834;52.364;9.754;2024-01-15T08:34:29;6.87;;;1.67;;
76863;SDS011;65834;52.364;9.754;2024-01-15T08:36:58;8.00;;;1.77;;
76863;SDS011;65834;52.364;9.754;2024-01-15T08:39:31;7.17;;;1.70;;
76863;SDS011;65834;52.364;9.754;2024-01-15T08:42:02;4.90;;;1.23;;
76863;SDS011;65834;52.364;9.754;2024-01-15T08:44:32;5.23;;;1.63;;
76863;SDS011;65834;52.364;9.754;2024-01-15T08:47:02;4.63;;;1.20;;
76863;SDS011;65834;52.364;9.754;2024-01-15T08:49:32;6.87;;;1.50;;
76863;SDS011;65834;52.364;9.754;2024-01-15T08:52:02;4.67;;;1.43;;
76863;SDS011;65834;52.364;9.754;2024-01-15T08:54:35;4.83;;;1.43;;
76863;SDS011;65834;52.364;9.754;2024-01-15T08:57:04;8.05;;;1.67;;
76863;SDS011;65834;52.364;9.754;2024-01-15T08:59:34;5.30;;;1.50;;
76863;SDS011;65834;52.364;9.754;2024-01-15T09:02:05;3.10;;;1.23;;
76863;SDS011;65834;52.364;9.754;2024-01-15T09:04:34;5.33;;;1.40;;
76863;SDS011;65834;52.364;9.754;2024-01-15T09:07:04;4.87;;;1.43;;
76863;SDS011;65834;52.364;9.754;2024-01-15T09:09:36;7.90;;;1.80;;
76863;SDS011;65834;52.364;9.754;2024-01-15T09:12:06;6.68;;;1.70;;
76863;SDS011;65834;52.364;9.754;2024-01-15T09:14:36;6.20;;;1.33;;
76863;SDS011;65834;52.364;9.754;2024-01-15T09:17:06;5.50;;;1.50;;
76863;SDS011;65834;52.364;9.754;2024-01-15T09:19:36;9.23;;;2.10;;
76863;SDS011;65834;52.364;9.754;2024-01-15T09:22:06;3.27;;;1.57;;
76863;SDS011;65834;52.364;9.754;2024-01-15T09:24:39;5.00;;;1.30;;
76863;SDS011;65834;52.364;9.754;2024-01-15T09:27:09;7.50;;;1.60;;
76863;SDS011;65834;52.364;9.754;2024-01-15T09:29:39;7.60;;;1.40;;
76863;SDS011;65834;52.364;9.754;2024-01-15T09:32:10;7.57;;;1.80;;
76863;SDS011;65834;52.364;9.754;2024-01-15T09:34:40;5.67;;;1.50;;
76863;SDS011;65834;52.364;9.754;2024-01-15T09:37:10;4.77;;;1.83;;
76863;SDS011;65834;52.364;9.754;2024-01-15T09:40:00;6.20;;;1.80;;
76863;SDS011;65834;52.364;9.754;2024-01-15T09:42:29;8.50;;;1.90;;
76863;SDS011;65834;52.364;9.754;2024-01-15T09:44:59;8.27;;;1.63;;
76863;SDS011;65834;52.364;9.754;2024-01-15T09:47:30;4.60;;;2.07;;
76863;SDS011;65834;52.364;9.754;2024-01-15T09:50:00;9.63;;;1.80;;
76863;SDS011;65834;52.364;9.754;2024-01-15T09:52:29;11.50;;;1.93;;
76863;SDS011;65834;52.364;9.754;2024-01-15T09:55:02;8.50;;;1.97;;
76863;SDS011;65834;52.364;9.754;2024-01-15T09:57:33;6.43;;;1.77;;
76863;SDS011;65834;52.364;9.754;2024-01-15T10:00:03;6.20;;;2.10;;
76863;SDS011;65834;52.364;9.754;2024-01-15T10:02:37;11.60;;;2.17;;
76863;SDS011;65834;52.364;9.754;2024-01-15T10:05:07;8.63;;;1.93;;
76863;SDS011;65834;52.364;9.754;2024-01-15T10:07:37;6.37;;;1.90;;
76863;SDS011;65834;52.364;9.754;2024-01-15T10:10:10;6.60;;;1.67;;
76863;SDS011;65834;52.364;9.754;2024-01-15T10:12:40;3.47;;;1.30;;
76863;SDS011;65834;52.364;9.754;2024-01-15T10:15:10;4.27;;;1.70;;
76863;SDS011;65834;52.364;9.754;2024-01-15T10:17:41;5.03;;;1.57;;
76863;SDS011;65834;52.364;9.754;2024-01-15T10:20:11;6.50;;;1.80;;
76863;SDS011;65834;52.364;9.754;2024-01-15T10:22:41;1.23;;;0.90;;
76863;SDS011;65834;52.364;9.754;2024-01-15T10:25:15;3.77;;;1.57;;
76863;SDS011;65834;52.364;9.754;2024-01-15T10:27:58;3.27;;;1.40;;
76863;SDS011;65834;52.364;9.754;2024-01-15T10:30:29;4.40;;;1.33;;
76863;SDS011;65834;52.364;9.754;2024-01-15T10:32:59;7.13;;;1.60;;
76863;SDS011;65834;52.364;9.754;2024-01-15T10:35:30;9.00;;;2.37;;
76863;SDS011;65834;52.364;9.754;2024-01-15T10:38:00;6.67;;;1.63;;
76863;SDS011;65834;52.364;9.754;2024-01-15T10:40:34;4.43;;;1.67;;
76863;SDS011;65834;52.364;9.754;2024-01-15T10:43:03;6.10;;;1.67;;
76863;SDS011;65834;52.364;9.754;2024-01-15T10:45:34;4.27;;;1.60;;
76863;SDS011;65834;52.364;9.754;2024-01-15T10:48:03;6.07;;;1.80;;
76863;SDS011;65834;52.364;9.754;2024-01-15T10:50:34;9.67;;;1.70;;
76863;SDS011;65834;52.364;9.754;2024-01-15T10:53:04;5.47;;;1.77;;
76863;SDS011;65834;52.364;9.754;2024-01-15T10:55:36;5.73;;;1.73;;
76863;SDS011;65834;52.364;9.754;2024-01-15T10:58:07;5.40;;;1.47;;
76863;SDS011;65834;52.364;9.754;2024-01-15T11:00:37;7.13;;;1.63;;
76863;SDS011;65834;52.364;9.754;2024-01-15T11:03:07;2.87;;;1.33;;
76863;SDS011;65834;52.364;9.754;2024-01-15T11:05:37;5.47;;;1.20;;
76863;SDS011;65834;52.364;9.754;2024-01-15T11:08:08;3.77;;;1.27;;
76863;SDS011;65834;52.364;9.754;2024-01-15T11:10:41;5.83;;;1.27;;
76863;SDS011;65834;52.364;9.754;2024-01-15T11:13:13;6.03;;;1.47;;
76863;SDS011;65834;52.364;9.754;2024-01-15T11:15:56;4.13;;;2.33;;
76863;SDS011;65834;52.364;9.754;2024-01-15T11:18:28;6.90;;;1.43;;
76863;SDS011;65834;52.364;9.754;2024-01-15T11:23:52;4.17;;;0.97;;
76863;SDS011;65834;52.364;9.754;2024-01-15T11:26:34;2.08;;;1.08;;
76863;SDS011;65834;52.364;9.754;2024-01-15T11:29:05;3.97;;;1.10;;
76863;SDS011;65834;52.364;9.754;2024-01-15T11:31:56;4.10;;;1.20;;
76863;SDS011;65834;52.364;9.754;2024-01-15T11:37:20;7.40;;;1.80;;
76863;SDS011;65834;52.364;9.754;2024-01-15T11:39:50;9.70;;;1.50;;
76863;SDS011;65834;52.364;9.754;2024-01-15T11:42:27;8.07;;;1.77;;
76863;SDS011;65834;52.364;9.754;2024-01-15T11:44:56;5.50;;;1.17;;
76863;SDS011;65834;52.364;9.754;2024-01-15T11:50:27;5.20;;;1.63;;
76863;SDS011;65834;52.364;9.754;2024-01-15T11:53:00;4.68;;;1.50;;
76863;SDS011;65834;52.364;9.754;2024-01-15T11:55:33;6.87;;;1.60;;
76863;SDS011;65834;52.364;9.754;2024-01-15T11:58:09;5.33;;;1.23;;
76863;SDS011;65834;52.364;9.754;2024-01-15T12:00:39;7.40;;;2.28;;
76863;SDS011;65834;52.364;9.754;2024-01-15T12:03:10;7.63;;;1.93;;
76863;SDS011;65834;52.364;9.754;2024-01-15T12:05:40;6.20;;;1.47;;
76863;SDS011;65834;52.364;9.754;2024-01-15T12:08:10;7.30;;;1.60;;
76863;SDS011;65834;52.364;9.754;2024-01-15T12:10:40;5.63;;;1.63;;
76863;SDS011;65834;52.364;9.754;2024-01-15T12:13:13;7.63;;;1.90;;
76863;SDS011;65834;52.364;9.754;2024-01-15T12:15:44;4.80;;;1.53;;
76863;SDS011;65834;52.364;9.754;2024-01-15T12:18:16;8.13;;;1.80;;
76863;SDS011;65834;52.364;9.754;2024-01-15T12:20:47;6.57;;;1.80;;
76863;SDS011;65834;52.364;9.754;2024-01-15T12:23:17;7.13;;;1.70;;
76863;SDS011;65834;52.364;9.754;2024-01-15T12:25:46;6.77;;;1.93;;
76863;SDS011;65834;52.364;9.754;2024-01-15T12:28:19;7.40;;;2.60;;
76863;SDS011;65834;52.364;9.754;2024-01-15T12:30:49;3.28;;;1.42;;
76863;SDS011;65834;52.364;9.754;2024-01-15T12:33:18;4.20;;;1.43;;
76863;SDS011;65834;52.364;9.754;2024-01-15T12:35:49;5.63;;;1.60;;
76863;SDS011;65834;52.364;9.754;2024-01-15T12:40:51;10.53;;;1.47;;
76863;SDS011;65834;52.364;9.754;2024-01-15T12:43:24;10.00;;;2.00;;
76863;SDS011;65834;52.364;9.754;2024-01-15T12:45:54;6.38;;;1.48;;
76863;SDS011;65834;52.364;9.754;2024-01-15T12:48:23;6.17;;;1.30;;
76863;SDS011;65834;52.364;9.754;2024-01-15T12:50:53;7.00;;;1.50;;
76863;SDS011;65834;52.364;9.754;2024-01-15T12:53:23;5.20;;;1.77;;
76863;SDS011;65834;52.364;9.754;2024-01-15T12:55:52;5.60;;;1.73;;
76863;SDS011;65834;52.364;9.754;2024-01-15T12:58:24;7.40;;;1.50;;
76863;SDS011;65834;52.364;9.754;2024-01-15T13:00:54;10.05;;;2.38;;
76863;SDS011;65834;52.364;9.754;2024-01-15T13:03:24;4.40;;;1.03;;
76863;SDS011;65834;52.364;9.754;2024-01-15T13:05:54;6.53;;;1.60;;
76863;SDS011;65834;52.364;9.754;2024-01-15T13:08:23;6.97;;;1.80;;
76863;SDS011;65834;52.364;9.754;2024-01-15T13:10:55;6.83;;;1.70;;
76863;SDS011;65834;52.364;9.754;2024-01-15T13:13:27;8.30;;;1.50;;
76863;SDS011;65834;52.364;9.754;2024-01-15T13:15:57;6.00;;;1.38;;
76863;SDS011;65834;52.364;9.754;2024-01-15T13:18:26;7.80;;;2.13;;
76863;SDS011;65834;52.364;9.754;2024-01-15T13:20:57;4.57;;;1.30;;
76863;SDS011;65834;52.364;9.754;2024-01-15T13:23:29;4.33;;;1.10;;
76863;SDS011;65834;52.364;9.754;2024-01-15T13:25:58;9.63;;;2.03;;
76863;SDS011;65834;52.364;9.754;2024-01-15T13:28:32;6.50;;;1.20;;
76863;SDS011;65834;52.364;9.754;2024-01-15T13:31:01;7.43;;;1.40;;
76863;SDS011;65834;52.364;9.754;2024-01-15T13:33:31;7.90;;;2.27;;
76863;SDS011;65834;52.364;9.754;2024-01-15T13:36:01;4.87;;;1.30;;
76863;SDS011;65834;52.364;9.754;2024-01-15T13:38:34;5.87;;;1.43;;
76863;SDS011;65834;52.364;9.754;2024-01-15T13:41:04;8.90;;;1.63;;
76863;SDS011;65834;52.364;9.754;2024-01-15T13:43:36;3.60;;;1.23;;
76863;SDS011;65834;52.364;9.754;2024-01-15T13:46:06;5.07;;;1.38;;
76863;SDS011;65834;52.364;9.754;2024-01-15T13:48:36;8.23;;;1.43;;
76863;SDS011;65834;52.364;9.754;2024-01-15T13:51:06;6.80;;;1.67;;
76863;SDS011;65834;52.364;9.754;2024-01-15T13:53:35;4.93;;;1.20;;
76863;SDS011;65834;52.364;9.754;2024-01-15T13:56:07;7.87;;;1.40;;
76863;SDS011;65834;52.364;9.754;2024-01-15T13:58:39;5.97;;;1.70;;
76863;SDS011;65834;52.364;9.754;2024-01-15T14:01:09;6.90;;;1.88;;
76863;SDS011;65834;52.364;9.754;2024-01-15T14:03:39;9.63;;;2.20;;
76863;SDS011;65834;52.364;9.754;2024-01-15T14:06:08;7.97;;;1.80;;
76863;SDS011;65834;52.364;9.754;2024-01-15T14:08:38;6.73;;;1.67;;
76863;SDS011;65834;52.364;9.754;2024-01-15T14:11:08;7.30;;;1.77;;
76863;SDS011;65834;52.364;9.754;2024-01-15T14:13:40;9.30;;;2.60;;
76863;SDS011;65834;52.364;9.754;2024-01-15T14:16:09;7.05;;;1.50;;
76863;SDS011;65834;52.364;9.754;2024-01-15T14:18:39;9.27;;;1.77;;
76863;SDS011;65834;52.364;9.754;2024-01-15T14:21:09;6.13;;;1.53;;
76863;SDS011;65834;52.364;9.754;2024-01-15T14:23:38;5.67;;;1.87;;
76863;SDS011;65834;52.364;9.754;2024-01-15T14:26:08;7.97;;;1.57;;
76863;SDS011;65834;52.364;9.754;2024-01-15T14:28:40;5.77;;;1.50;;
76863;SDS011;65834;52.364;9.754;2024-01-15T14:31:10;3.95;;;1.42;;
76863;SDS011;65834;52.364;9.754;2024-01-15T14:33:39;5.50;;;1.57;;
76863;SDS011;65834;52.364;9.754;2024-01-15T14:36:09;7.70;;;1.67;;
76863;SDS011;65834;52.364;9.754;2024-01-15T14:38:39;4.93;;;1.60;;
76863;SDS011;65834;52.364;9.754;2024-01-15T14:41:08;8.33;;;1.67;;
76863;SDS011;65834;52.364;9.754;2024-01-15T14:43:40;3.47;;;1.23;;
76863;SDS011;65834;52.364;9.754;2024-01-15T14:46:11;2.80;;;1.10;;
76863;SDS011;65834;52.364;9.754;2024-01-15T14:48:40;7.20;;;2.00;;
76863;SDS011;65834;52.364;9.754;2024-01-15T14:51:11;8.30;;;2.10;;
76863;SDS011;65834;52.364;9.754;2024-01-15T14:53:41;4.53;;;1.57;;
76863;SDS011;65834;52.364;9.754;2024-01-15T14:56:10;5.23;;;1.60;;
76863;SDS011;65834;52.364;9.754;2024-01-15T14:58:46;3.60;;;1.60;;
76863;SDS011;65834;52.364;9.754;2024-01-15T15:01:16;8.25;;;1.60;;
76863;SDS011;65834;52.364;9.754;2024-01-15T15:03:45;5.40;;;1.60;;
76863;SDS011;65834;52.364;9.754;2024-01-15T15:06:15;6.50;;;1.67;;
76863;SDS011;65834;52.364;9.754;2024-01-15T15:08:44;4.37;;;1.73;;
76863;SDS011;65834;52.364;9.754;2024-01-15T15:11:14;6.73;;;2.03;;
76863;SDS011;65834;52.364;9.754;2024-01-15T15:13:46;5.07;;;1.50;;
76863;SDS011;65834;52.364;9.754;2024-01-15T15:16:16;6.05;;;1.52;;
76863;SDS011;65834;52.364;9.754;2024-01-15T15:18:45;8.40;;;2.03;;
76863;SDS011;65834;52.364;9.754;2024-01-15T15:21:15;7.80;;;1.97;;
76863;SDS011;65834;52.364;9.754;2024-01-15T15:23:44;7.27;;;2.20;;